Time;durP1;ratioP1;P1;durP2;ratioP2;P2;SDS_P1;SDS_P2;PMS_P1;PMS_P2;Temp;Humidity;BMP_temperature;BMP_pressure;BME280_temperature;BME280_humidity;BME280_pressure;Samples;Min_cycle;Max_cycle;Signal;HPM_P1;HPM_P2
2022/04/27 00:01:44;;;;;;;5.95;3.85;;;9.50;57.70;;;;;;5024616;28;20029;-60
2022/04/27 00:04:09;;;;;;;6.07;3.88;;;9.40;58.40;;;;;;5030461;28;20292;-60
2022/04/27 00:06:35;;;;;;;6.78;3.72;;;9.40;58.40;;;;;;5027303;28;20030;-60
2022/04/27 00:09:01;;;;;;;3.97;3.03;;;9.40;58.60;;;;;;5032567;28;20061;-60
2022/04/27 00:11:26;;;;;;;4.00;3.05;;;9.40;58.90;;;;;;5020673;28;20536;-60
2022/04/27 00:13:52;;;;;;;5.45;3.47;;;9.40;58.80;;;;;;5040176;28;20021;-60
2022/04/27 00:16:17;;;;;;;5.15;3.03;;;9.30;59.50;;;;;;5033542;28;20056;-60
2022/04/27 00:18:43;;;;;;;8.65;3.03;;;9.30;61.40;;;;;;5016643;28;20573;-60
2022/04/27 00:21:08;;;;;;;6.07;3.15;;;9.30;61.10;;;;;;5012812;28;20061;-60
2022/04/27 00:23:34;;;;;;;5.10;3.60;;;9.20;61.60;;;;;;5036705;28;20068;-60
2022/04/27 00:26:00;;;;;;;5.40;3.13;;;9.10;62.00;;;;;;5032045;28;20029;-60
2022/04/27 00:28:25;;;;;;;4.97;3.53;;;9.10;62.60;;;;;;5030577;28;20288;-60
2022/04/27 00:30:51;;;;;;;5.10;3.53;;;9.00;62.90;;;;;;5021291;28;20088;-60
2022/04/27 00:33:16;;;;;;;4.88;3.13;;;8.80;63.80;;;;;;5030655;28;20080;-60
2022/04/27 00:35:42;;;;;;;5.60;2.90;;;8.70;65.30;;;;;;5030200;28;20033;-60
2022/04/27 00:38:08;;;;;;;6.88;3.70;;;8.60;66.20;;;;;;5042792;28;20067;-60
2022/04/27 00:40:33;;;;;;;3.85;3.03;;;8.40;69.40;;;;;;5026345;28;20026;-60
2022/04/27 00:42:59;;;;;;;4.28;2.88;;;8.20;71.30;;;;;;5042734;28;20033;-60
2022/04/27 00:45:24;;;;;;;4.72;3.22;;;8.10;72.30;;;;;;5015098;28;20041;-60
2022/04/27 00:47:50;;;;;;;5.80;4.15;;;7.90;74.40;;;;;;5014903;28;20021;-60
2022/04/27 00:50:16;;;;;;;4.07;3.08;;;7.70;75.60;;;;;;5022730;28;20420;-60
2022/04/27 00:52:42;;;;;;;3.90;3.10;;;7.60;79.70;;;;;;5029141;28;20614;-60
2022/04/27 00:55:10;;;;;;;4.30;3.30;;;7.40;83.60;;;;;;5016916;28;20022;-60
2022/04/27 00:57:39;;;;;;;5.43;3.40;;;7.30;82.90;;;;;;5042998;28;20037;-60
2022/04/27 01:00:07;;;;;;;4.78;3.30;;;7.10;84.50;;;;;;5019510;28;20033;-59
2022/04/27 01:02:33;;;;;;;5.07;3.08;;;7.00;86.10;;;;;;5038297;28;20111;-60
2022/04/27 01:04:59;;;;;;;5.90;3.70;;;6.90;88.20;;;;;;5020603;28;20034;-60
2022/04/27 01:07:25;;;;;;;4.88;3.33;;;6.70;90.00;;;;;;5033867;28;20059;-60
2022/04/27 01:09:51;;;;;;;6.05;3.53;;;6.60;91.00;;;;;;5037553;28;20132;-60
2022/04/27 01:12:17;;;;;;;5.03;3.58;;;6.50;93.50;;;;;;5032995;28;20041;-59
2022/04/27 01:14:44;;;;;;;4.93;3.45;;;6.40;93.30;;;;;;5042496;28;20031;-60
2022/04/27 01:17:10;;;;;;;5.53;3.30;;;6.30;93.80;;;;;;5019995;28;20497;-60
2022/04/27 01:19:35;;;;;;;6.30;3.25;;;6.20;94.50;;;;;;5038191;28;20052;-60
2022/04/27 01:22:02;;;;;;;5.35;3.38;;;6.10;95.00;;;;;;5035772;28;20038;-60
2022/04/27 01:24:27;;;;;;;5.00;3.50;;;6.00;95.70;;;;;;5034358;28;20024;-60
2022/04/27 01:26:53;;;;;;;5.05;3.17;;;5.90;96.50;;;;;;5048652;28;20033;-60
2022/04/27 01:29:24;;;;;;;6.38;3.15;;;5.80;97.60;;;;;;5033618;28;20032;-60
2022/04/27 01:31:51;;;;;;;3.75;3.13;;;5.70;98.40;;;;;;5048836;28;20033;-60
2022/04/27 01:34:17;;;;;;;3.85;2.60;;;5.70;99.90;;;;;;5033202;28;20040;-60
2022/04/27 01:36:42;;;;;;;4.55;2.70;;;5.70;99.90;;;;;;5048878;28;20029;-60
2022/04/27 01:39:08;;;;;;;5.15;2.95;;;5.70;99.90;;;;;;5032154;28;20049;-60
2022/04/27 01:41:34;;;;;;;4.85;2.92;;;5.60;99.90;;;;;;5048827;28;20029;-59
2022/04/27 01:44:01;;;;;;;6.15;3.30;;;5.50;99.90;;;;;;5030785;28;20419;-60
2022/04/27 01:46:27;;;;;;;5.90;3.10;;;5.50;99.90;;;;;;5048631;28;20021;-60
2022/04/27 01:48:53;;;;;;;5.45;3.30;;;5.50;99.90;;;;;;5030054;28;20029;-61
2022/04/27 01:54:14;;;;;;;6.30;3.75;;;5.40;99.90;;;;;;5048451;28;20047;-59
2022/04/27 01:54:17;;;;;;;5.40;3.50;;;5.40;99.90;;;;;;5031212;28;20033;-59
2022/04/27 01:56:44;;;;;;;6.88;3.72;;;5.40;99.90;;;;;;5048325;28;20812;-59
2022/04/27 01:59:10;;;;;;;7.28;3.45;;;5.40;99.90;;;;;;5031738;28;20029;-58
2022/04/27 02:01:36;;;;;;;6.20;3.60;;;5.30;99.90;;;;;;5044828;28;20107;-59
2022/04/27 02:04:01;;;;;;;5.47;3.80;;;5.30;99.90;;;;;;5030935;28;20033;-59
2022/04/27 02:06:28;;;;;;;4.03;3.22;;;5.20;99.90;;;;;;5048250;28;20139;-59
2022/04/27 02:08:54;;;;;;;7.95;3.85;;;5.10;99.90;;;;;;5029656;28;20408;-60
2022/04/27 02:11:26;;;;;;;7.82;4.70;;;5.10;99.90;;;;;;5047980;28;20040;-59
2022/04/27 02:13:54;;;;;;;8.48;3.92;;;5.10;99.90;;;;;;5038730;28;20487;-60
2022/04/27 02:16:24;;;;;;;5.45;3.67;;;5.00;99.90;;;;;;5047153;28;20048;-59
2022/04/27 02:18:50;;;;;;;10.52;4.55;;;4.90;99.90;;;;;;5042009;28;20053;-60
2022/04/27 02:21:16;;;;;;;6.10;4.13;;;4.90;99.90;;;;;;5047866;28;20544;-60
2022/04/27 02:23:42;;;;;;;7.80;4.18;;;4.90;99.90;;;;;;5041385;28;20096;-60
2022/04/27 02:26:07;;;;;;;9.82;4.00;;;4.80;99.90;;;;;;5047524;28;20035;-59
2022/04/27 02:28:33;;;;;;;7.15;4.53;;;4.70;99.90;;;;;;5040064;28;20029;-60
2022/04/27 02:30:58;;;;;;;6.55;3.95;;;4.70;99.90;;;;;;5047732;28;20041;-60
2022/04/27 02:33:24;;;;;;;9.32;3.88;;;4.70;99.90;;;;;;5038902;28;20033;-60
2022/04/27 02:35:50;;;;;;;8.43;4.80;;;4.60;99.90;;;;;;5047580;28;20515;-60
2022/04/27 02:38:15;;;;;;;8.48;4.95;;;4.80;99.90;;;;;;5037671;28;20503;-60
2022/04/27 02:40:41;;;;;;;6.50;4.07;;;4.80;99.90;;;;;;5047521;28;20170;-61
2022/04/27 02:43:07;;;;;;;7.88;5.00;;;4.80;99.90;;;;;;5036070;28;20044;-60
2022/04/27 02:45:32;;;;;;;7.38;4.55;;;4.70;99.90;;;;;;5028277;28;20038;-60
2022/04/27 02:47:58;;;;;;;9.15;5.63;;;4.80;99.90;;;;;;5044734;28;20033;-60
2022/04/27 02:53:07;;;;;;;6.22;4.00;;;4.80;99.90;;;;;;5025986;28;20144;-59
2022/04/27 02:55:33;;;;;;;8.48;4.45;;;4.70;99.90;;;;;;5027988;28;20120;-60
2022/04/27 02:57:58;;;;;;;7.47;4.28;;;4.60;99.90;;;;;;5044673;28;20109;-60
2022/04/27 03:00:24;;;;;;;8.45;4.32;;;4.60;99.90;;;;;;5034261;28;20186;-60
2022/04/27 03:02:49;;;;;;;8.75;4.22;;;4.40;99.90;;;;;;5033491;28;20025;-60
2022/04/27 03:05:16;;;;;;;9.55;5.13;;;4.40;99.90;;;;;;5047412;28;20031;-59
2022/04/27 03:07:42;;;;;;;7.72;4.45;;;4.40;99.90;;;;;;5032253;28;20056;-60
2022/04/27 03:10:08;;;;;;;8.43;4.53;;;4.30;99.90;;;;;;5047375;28;20064;-62
2022/04/27 03:12:35;;;;;;;6.97;4.53;;;4.20;99.90;;;;;;5030929;28;20045;-62
2022/04/27 03:15:01;;;;;;;10.55;4.82;;;4.20;99.90;;;;;;5039793;28;20128;-62
2022/04/27 03:17:27;;;;;;;10.38;5.28;;;4.10;99.90;;;;;;5029935;28;20163;-62
2022/04/27 03:19:52;;;;;;;7.38;4.80;;;4.10;99.90;;;;;;5047218;28;20439;-63
2022/04/27 03:22:18;;;;;;;8.43;4.03;;;4.10;99.90;;;;;;5029149;28;20036;-62
2022/04/27 03:24:43;;;;;;;8.45;4.78;;;4.10;99.90;;;;;;5047115;28;20017;-62
2022/04/27 03:27:09;;;;;;;6.30;4.45;;;4.10;99.90;;;;;;5030467;28;20099;-61
2022/04/27 03:29:34;;;;;;;7.65;4.47;;;4.10;99.90;;;;;;5051162;28;20017;-61
2022/04/27 03:32:00;;;;;;;7.90;4.95;;;4.20;99.90;;;;;;5030304;28;20108;-61
2022/04/27 03:34:26;;;;;;;6.90;4.70;;;4.40;99.90;;;;;;5051316;28;20069;-61
2022/04/27 03:36:51;;;;;;;8.15;4.30;;;4.40;99.90;;;;;;5031623;28;20087;-61
2022/04/27 03:39:17;;;;;;;8.93;3.95;;;4.40;99.90;;;;;;5048771;28;20623;-61
2022/04/27 03:41:42;;;;;;;8.25;5.20;;;4.40;99.90;;;;;;5031576;28;20026;-61
2022/04/27 03:44:07;;;;;;;11.70;5.28;;;4.40;99.90;;;;;;5048312;28;20032;-60
2022/04/27 03:46:33;;;;;;;9.38;5.20;;;4.30;99.90;;;;;;5048788;28;20107;-61
2022/04/27 03:48:58;;;;;;;8.57;5.15;;;4.30;99.90;;;;;;5050946;28;20036;-61
2022/04/27 03:51:24;;;;;;;11.13;5.22;;;4.20;99.90;;;;;;5032130;28;20066;-60
2022/04/27 03:53:50;;;;;;;8.95;4.80;;;4.20;99.90;;;;;;5050861;28;20075;-61
2022/04/27 03:56:16;;;;;;;7.97;4.35;;;4.20;99.90;;;;;;5030990;28;20388;-61
2022/04/27 03:58:41;;;;;;;11.05;5.10;;;4.20;99.90;;;;;;5050701;28;20223;-61
2022/04/27 04:01:07;;;;;;;10.10;5.00;;;4.20;99.90;;;;;;5026084;28;20029;-61
2022/04/27 04:03:33;;;;;;;8.75;5.38;;;4.20;99.90;;;;;;5050695;28;20047;-61
2022/04/27 04:05:58;;;;;;;10.52;4.60;;;4.20;99.90;;;;;;5031122;28;20037;-61
2022/04/27 04:08:24;;;;;;;5.78;4.07;;;4.20;99.90;;;;;;5048082;28;20025;-61
2022/04/27 04:10:50;;;;;;;7.40;4.63;;;4.30;99.90;;;;;;5031527;28;20041;-61
2022/04/27 04:13:15;;;;;;;10.50;5.63;;;4.40;99.90;;;;;;5048043;28;20021;-62
2022/04/27 04:15:41;;;;;;;7.43;4.38;;;4.40;99.90;;;;;;5050442;28;20429;-62
2022/04/27 04:18:06;;;;;;;7.70;4.65;;;4.50;99.90;;;;;;5039161;28;20033;-60
2022/04/27 04:20:32;;;;;;;10.68;5.70;;;4.60;99.90;;;;;;5031027;28;20029;-61
2022/04/27 04:22:58;;;;;;;10.77;4.95;;;4.60;99.90;;;;;;5047862;28;20032;-62
2022/04/27 04:28:31;;;;;;;9.45;5.45;;;4.90;99.90;;;;;;5000599;28;20053;-61
2022/04/27 04:31:04;;;;;;;14.93;5.60;;;5.40;99.90;;;;;;5030367;28;20054;-61
2022/04/27 04:33:30;;;;;;;9.13;4.18;;;5.80;99.90;;;;;;5047913;28;20207;-61
2022/04/27 04:35:57;;;;;;;7.85;4.47;;;6.40;99.90;;;;;;5050183;28;20192;-62
2022/04/27 04:38:23;;;;;;;7.38;4.75;;;7.10;99.70;;;;;;5039829;28;20119;-61
2022/04/27 04:40:49;;;;;;;8.25;4.93;;;6.90;97.40;;;;;;5049871;28;20029;-62
2022/04/27 04:43:15;;;;;;;7.93;4.70;;;8.10;93.90;;;;;;5039605;28;20028;-61
2022/04/27 04:45:40;;;;;;;6.93;4.22;;;7.90;91.70;;;;;;5030736;28;20112;-62
2022/04/27 04:48:08;;;;;;;6.15;3.80;;;9.50;85.60;;;;;;5047273;28;20085;-61
2022/04/27 04:50:34;;;;;;;7.63;4.07;;;11.30;69.30;;;;;;5026708;28;20029;-62
2022/04/27 04:52:59;;;;;;;5.95;3.92;;;12.90;57.30;;;;;;5030130;28;20041;-62
2022/04/27 04:55:25;;;;;;;6.82;3.95;;;14.20;48.70;;;;;;5047127;28;20483;-62
2022/04/27 04:57:50;;;;;;;5.65;3.92;;;15.30;42.70;;;;;;5049795;28;20104;-62
2022/04/27 05:00:16;;;;;;;6.20;4.15;;;16.40;38.50;;;;;;5030893;28;20367;-62
2022/04/27 05:02:41;;;;;;;9.98;4.40;;;17.30;34.30;;;;;;5049455;28;20024;-62
2022/04/27 05:05:07;;;;;;;5.72;4.03;;;18.10;30.20;;;;;;5047485;28;20032;-62
2022/04/27 05:07:33;;;;;;;6.32;4.30;;;19.00;27.80;;;;;;5049681;28;20021;-62
2022/04/27 05:09:59;;;;;;;8.50;4.63;;;19.70;26.70;;;;;;5030050;28;20084;-62
2022/04/27 05:12:25;;;;;;;6.35;4.32;;;20.10;25.20;;;;;;5044696;28;20057;-62
2022/04/27 05:14:52;;;;;;;6.43;4.50;;;20.80;23.30;;;;;;5043474;28;20037;-62
2022/04/27 05:17:18;;;;;;;5.28;3.67;;;21.70;22.60;;;;;;5031244;28;20140;-62
2022/04/27 05:19:43;;;;;;;7.80;3.75;;;22.40;20.90;;;;;;5044510;28;20100;-62
2022/04/27 05:22:09;;;;;;;7.00;3.92;;;23.10;19.90;;;;;;5024928;28;20037;-61
2022/04/27 05:24:34;;;;;;;4.95;3.63;;;23.60;18.30;;;;;;5029241;28;20117;-62
2022/04/27 05:27:00;;;;;;;5.82;4.22;;;24.10;17.00;;;;;;5040456;28;20029;-62
2022/04/27 05:32:10;;;;;;;5.22;3.45;;;22.50;17.20;;;;;;5046192;28;20047;-62
2022/04/27 05:34:36;;;;;;;5.80;4.03;;;21.00;20.10;;;;;;5025083;28;20034;-62
2022/04/27 05:37:03;;;;;;;4.45;3.55;;;21.70;18.20;;;;;;5026031;28;20067;-63
2022/04/27 05:39:28;;;;;;;6.22;3.60;;;20.70;17.90;;;;;;5037407;28;20037;-62
2022/04/27 05:41:54;;;;;;;4.60;3.78;;;20.60;17.90;;;;;;5044152;28;20106;-62
2022/04/27 05:44:22;;;;;;;3.92;3.40;;;19.20;20.70;;;;;;5025469;28;20076;-62
2022/04/27 05:46:51;;;;;;;6.85;3.97;;;19.20;20.20;;;;;;5046326;28;20033;-62
2022/04/27 05:49:17;;;;;;;7.40;4.03;;;20.20;21.00;;;;;;5024898;28;20124;-62
2022/04/27 05:51:43;;;;;;;3.55;2.80;;;22.50;16.60;;;;;;5029268;28;20128;-62
2022/04/27 05:54:08;;;;;;;5.85;3.13;;;24.30;14.10;;;;;;5045150;28;20052;-61
2022/04/27 05:56:34;;;;;;;4.82;3.90;;;25.80;11.50;;;;;;5037417;28;20453;-62
2022/04/27 05:59:01;;;;;;;7.43;3.78;;;27.30;9.30;;;;;;5044966;28;20033;-62
2022/04/27 06:01:27;;;;;;;4.53;3.30;;;27.80;8.20;;;;;;5023828;28;20022;-62
2022/04/27 06:04:33;;;;;;;4.55;3.10;;;27.80;7.90;;;;;;5034202;28;20493;-62
2022/04/27 06:07:58;;;;;;;2.95;2.45;;;28.20;3.20;;;;;;5030653;28;20037;-62
2022/04/27 06:11:23;;;;;;;5.18;3.45;;;29.40;3.60;;;;;;5026935;28;20033;-62
2022/04/27 06:14:49;;;;;;;3.63;3.10;;;29.70;2.20;;;;;;5032794;28;20045;-61
2022/04/27 06:18:14;;;;;;;3.55;2.58;;;30.40;1.00;;;;;;5031120;28;20724;-62
2022/04/27 06:21:39;;;;;;;4.82;2.40;;;30.70;1.00;;;;;;5023506;28;20045;-61
2022/04/27 06:25:05;;;;;;;6.97;2.60;;;31.30;1.00;;;;;;5029800;28;20049;-62
2022/04/27 06:28:30;;;;;;;4.53;2.38;;;31.80;1.00;;;;;;5014095;28;20029;-63
2022/04/27 06:31:56;;;;;;;4.20;2.50;;;32.20;1.00;;;;;;5021231;28;20081;-60
2022/04/27 06:35:21;;;;;;;5.05;3.10;;;32.00;1.00;;;;;;5020960;28;20036;-63
2022/04/27 06:38:46;;;;;;;3.63;2.63;;;31.80;1.00;;;;;;5046729;28;20043;-60
2022/04/27 06:42:12;;;;;;;3.67;2.75;;;32.20;1.00;;;;;;5041471;28;20068;-61
2022/04/27 06:45:40;;;;;;;5.07;3.72;;;33.00;1.00;;;;;;5043199;28;20037;-62
2022/04/27 06:49:06;;;;;;;4.03;3.25;;;33.70;1.00;;;;;;5043393;28;20537;-61
2022/04/27 06:52:31;;;;;;;4.53;3.60;;;33.70;1.00;;;;;;5033678;28;20045;-62
2022/04/27 06:55:56;;;;;;;2.88;2.60;;;34.00;1.00;;;;;;5037611;28;20870;-62
2022/04/27 06:59:22;;;;;;;4.32;3.10;;;34.40;1.00;;;;;;5029946;28;20076;-62
2022/04/27 07:02:47;;;;;;;3.10;2.80;;;34.60;1.00;;;;;;5035915;28;20041;-58
2022/04/27 07:06:13;;;;;;;3.45;2.78;;;34.40;1.00;;;;;;5033618;28;20040;-58
2022/04/27 07:09:38;;;;;;;3.42;3.13;;;34.40;1.00;;;;;;5026616;28;20029;-58
2022/04/27 07:13:03;;;;;;;5.30;3.28;;;34.90;1.00;;;;;;5040541;28;20044;-57
2022/04/27 07:16:28;;;;;;;4.22;3.28;;;34.10;1.00;;;;;;5014697;28;20658;-57
2022/04/27 07:19:54;;;;;;;5.07;3.35;;;33.60;1.00;;;;;;5026261;28;20069;-57
2022/04/27 07:23:19;;;;;;;3.42;3.13;;;33.70;1.00;;;;;;5034894;28;20794;-58
2022/04/27 07:26:48;;;;;;;5.07;3.65;;;34.10;1.00;;;;;;5033437;28;20033;-58
2022/04/27 07:30:13;;;;;;;3.25;2.83;;;34.00;1.00;;;;;;5040626;28;20179;-58
2022/04/27 07:33:38;;;;;;;3.95;3.53;;;34.50;1.00;;;;;;5046239;28;20055;-58
2022/04/27 07:37:05;;;;;;;4.60;3.58;;;34.00;1.00;;;;;;5040407;28;20040;-58
2022/04/27 07:40:29;;;;;;;3.42;2.90;;;33.70;1.00;;;;;;5006513;28;20038;-58
2022/04/27 07:43:55;;;;;;;4.20;3.80;;;33.50;1.00;;;;;;5006924;28;20439;-56
2022/04/27 07:47:20;;;;;;;3.92;2.42;;;33.30;1.00;;;;;;5033330;28;20055;-57
2022/04/27 07:50:45;;;;;;;3.25;2.70;;;33.00;1.00;;;;;;5035360;28;20369;-57
2022/04/27 07:54:11;;;;;;;7.07;3.10;;;32.90;1.00;;;;;;5035314;28;20083;-57
2022/04/27 07:57:37;;;;;;;3.60;2.97;;;32.70;1.00;;;;;;5033361;28;20489;-58
2022/04/27 08:01:01;;;;;;;4.10;2.45;;;32.50;1.00;;;;;;5025538;28;20037;-57
2022/04/27 08:04:27;;;;;;;2.80;2.15;;;33.40;1.00;;;;;;5031669;28;20504;-57
2022/04/27 08:07:58;;;;;;;3.15;2.10;;;34.00;1.00;;;;;;5040649;28;20048;-58
2022/04/27 08:11:24;;;;;;;2.33;1.90;;;34.20;1.00;;;;;;5036751;28;20206;-56
2022/04/27 08:14:49;;;;;;;3.25;2.35;;;34.90;1.00;;;;;;5028085;28;20044;-58
2022/04/27 08:18:14;;;;;;;2.72;2.45;;;35.10;1.00;;;;;;5047834;28;20496;-57
2022/04/27 08:21:40;;;;;;;2.95;2.28;;;35.30;1.00;;;;;;5044463;28;20040;-60
2022/04/27 08:25:05;;;;;;;1.92;1.60;;;34.80;1.00;;;;;;5038294;28;20048;-61
2022/04/27 08:28:30;;;;;;;2.00;1.27;;;35.40;1.00;;;;;;5049396;28;20032;-61
2022/04/27 08:31:56;;;;;;;2.08;1.38;;;34.40;1.00;;;;;;5041591;28;20048;-61
2022/04/27 08:35:21;;;;;;;1.73;1.60;;;34.60;1.00;;;;;;5038101;28;20069;-60
2022/04/27 08:38:46;;;;;;;1.63;1.40;;;35.40;1.00;;;;;;5037790;28;20040;-60
2022/04/27 08:42:12;;;;;;;2.13;1.27;;;36.00;1.00;;;;;;5043873;28;20676;-60
2022/04/27 08:45:37;;;;;;;2.03;1.40;;;35.60;1.00;;;;;;5043507;28;20037;-60
2022/04/27 08:49:05;;;;;;;2.08;1.55;;;35.50;1.00;;;;;;5045293;28;20496;-60
2022/04/27 08:52:31;;;;;;;1.73;1.33;;;35.20;1.00;;;;;;5036070;28;20508;-60
2022/04/27 08:55:56;;;;;;;1.40;1.30;;;34.30;1.00;;;;;;5040896;28;20064;-61
2022/04/27 08:59:22;;;;;;;1.95;1.02;;;35.00;1.00;;;;;;5029531;28;20041;-61
2022/04/27 09:03:05;;;;;;;3.65;1.70;;;34.90;1.00;;;;;;5043506;28;20025;-60
2022/04/27 09:06:31;;;;;;;2.50;1.33;;;34.40;1.00;;;;;;5035863;28;20084;-60
2022/04/27 09:10:11;;;;;;;2.45;1.30;;;33.70;1.00;;;;;;5027502;28;20032;-61
2022/04/27 09:13:37;;;;;;;1.95;1.65;;;32.20;1.00;;;;;;5046124;28;20109;-62
2022/04/27 09:20:46;;;;;;;2.58;1.50;;;32.30;1.00;;;;;;5037294;28;20049;-60
2022/04/27 09:22:04;;;;;;;1.95;1.20;;;32.20;1.00;;;;;;5032339;28;20047;-60
2022/04/27 09:24:50;;;;;;;2.67;1.27;;;29.80;1.00;;;;;;5048070;28;20025;-61
2022/04/27 09:27:23;;;;;;;2.90;1.63;;;30.10;1.00;;;;;;5012521;28;20025;-61
2022/04/27 09:30:03;;;;;;;2.03;1.70;;;30.30;1.00;;;;;;5048621;28;20043;-61
2022/04/27 09:32:29;;;;;;;2.08;1.58;;;30.80;1.00;;;;;;5015932;28;20048;-62
2022/04/27 09:34:56;;;;;;;2.15;1.75;;;31.20;1.00;;;;;;5048363;28;20024;-61
2022/04/27 09:38:02;;;;;;;3.92;1.75;;;31.50;1.00;;;;;;5030323;28;20033;-61
2022/04/27 09:41:27;;;;;;;1.75;1.48;;;30.50;1.00;;;;;;5008364;28;20540;-62
2022/04/27 09:45:08;;;;;;;1.90;1.35;;;30.30;1.00;;;;;;5043952;28;20040;-61
2022/04/27 09:48:36;;;;;;;1.88;1.30;;;28.50;1.00;;;;;;5035056;28;20036;-62
2022/04/27 09:52:01;;;;;;;4.53;1.52;;;26.10;1.00;;;;;;5044304;28;20053;-62
2022/04/27 09:55:27;;;;;;;1.38;1.15;;;24.80;1.00;;;;;;5047803;28;20036;-62
2022/04/27 09:58:52;;;;;;;2.05;1.58;;;27.10;1.00;;;;;;5037346;28;20037;-61
2022/04/27 10:02:17;;;;;;;1.58;1.48;;;29.00;1.00;;;;;;5032882;28;20045;-61
2022/04/27 10:05:43;;;;;;;1.35;1.15;;;29.60;1.00;;;;;;5008157;28;20117;-62
2022/04/27 10:09:08;;;;;;;1.40;1.20;;;28.10;1.00;;;;;;5031627;28;20041;-62
2022/04/27 10:12:34;;;;;;;6.05;1.60;;;26.30;1.00;;;;;;5007895;28;20100;-63
2022/04/27 10:15:59;;;;;;;3.22;1.35;;;25.10;1.00;;;;;;5033824;28;20056;-62
2022/04/27 10:19:24;;;;;;;1.88;1.27;;;23.30;1.00;;;;;;5039410;28;20130;-61
2022/04/27 10:22:49;;;;;;;1.90;1.70;;;22.20;1.00;;;;;;5038694;28;20037;-62
2022/04/27 10:26:13;;;;;;;1.60;1.27;;;21.50;1.00;;;;;;5007663;28;20041;-62
2022/04/27 10:29:38;;;;;;;2.47;1.20;;;21.00;1.00;;;;;;5039806;28;20120;-62
2022/04/27 10:33:12;;;;;;;1.20;1.10;;;21.00;1.00;;;;;;5033990;28;20048;-62
2022/04/27 10:36:27;;;;;;;1.58;1.30;;;21.20;1.00;;;;;;5026601;28;20037;-62
2022/04/27 10:39:12;;;;;;;2.15;1.20;;;21.50;1.00;;;;;;5043086;28;20075;-62
2022/04/27 10:42:04;;;;;;;1.73;1.23;;;21.20;1.00;;;;;;5025568;28;20469;-62
2022/04/27 10:44:50;;;;;;;1.10;1.00;;;21.00;1.00;;;;;;5032617;28;20076;-63
2022/04/27 10:48:15;;;;;;;1.38;1.27;;;20.90;1.00;;;;;;5030704;28;20041;-62
2022/04/27 10:51:40;;;;;;;2.88;1.20;;;21.00;1.00;;;;;;5026892;28;20653;-62
2022/04/27 10:55:05;;;;;;;4.00;1.13;;;21.30;1.00;;;;;;5035632;28;20041;-62
2022/04/27 10:58:34;;;;;;;2.88;1.45;;;21.70;1.00;;;;;;5033963;28;20043;-62
2022/04/27 11:01:59;;;;;;;1.77;1.00;;;21.70;1.00;;;;;;5038905;28;20041;-62
2022/04/27 11:05:04;;;;;;;1.90;1.00;;;21.10;1.00;;;;;;5046814;28;20653;-62
2022/04/27 11:08:13;;;;;;;1.70;0.98;;;20.60;1.00;;;;;;5031248;28;20040;-62
2022/04/27 11:11:40;;;;;;;2.45;1.48;;;20.20;1.00;;;;;;5035818;28;20037;-56
2022/04/27 11:14:34;;;;;;;2.88;1.35;;;19.70;1.00;;;;;;5032314;28;20057;-58
2022/04/27 11:17:00;;;;;;;1.80;1.55;;;19.50;1.00;;;;;;5025646;28;20030;-55
2022/04/27 11:20:15;;;;;;;1.63;1.25;;;19.60;1.20;;;;;;5045151;28;20036;-57
2022/04/27 11:23:40;;;;;;;1.10;1.00;;;19.60;1.40;;;;;;5014729;28;20040;-56
2022/04/27 11:27:06;;;;;;;2.55;1.20;;;19.60;1.00;;;;;;5025855;28;20041;-58
2022/04/27 11:30:31;;;;;;;1.23;1.00;;;19.80;1.00;;;;;;5035227;28;20033;-57
2022/04/27 11:33:56;;;;;;;1.33;1.20;;;20.00;1.00;;;;;;5019248;28;20048;-58
2022/04/27 11:37:37;;;;;;;2.80;1.25;;;20.00;1.00;;;;;;5026618;28;20044;-57
2022/04/27 11:41:02;;;;;;;1.67;1.10;;;20.30;1.20;;;;;;5006549;28;20033;-58
2022/04/27 11:44:28;;;;;;;2.85;1.00;;;20.50;1.00;;;;;;5039153;28;20037;-58
2022/04/27 11:48:24;;;;;;;1.20;1.00;;;20.50;1.00;;;;;;5043391;28;20037;-57
2022/04/27 11:51:49;;;;;;;2.90;1.50;;;20.00;1.20;;;;;;5030026;28;20084;-56
2022/04/27 11:55:15;;;;;;;3.78;1.33;;;19.20;1.60;;;;;;5044330;28;20508;-57
2022/04/27 11:58:40;;;;;;;3.28;1.27;;;18.90;2.90;;;;;;5041442;28;20093;-58
2022/04/27 12:02:11;;;;;;;3.22;1.58;;;18.80;2.50;;;;;;5004081;28;20041;-58
2022/04/27 12:05:36;;;;;;;1.20;1.10;;;18.60;2.00;;;;;;5048308;28;20482;-54
2022/04/27 12:09:05;;;;;;;3.85;1.60;;;18.50;2.50;;;;;;5042380;28;20094;-57
2022/04/27 12:12:30;;;;;;;1.27;1.17;;;18.60;3.10;;;;;;5009978;28;20050;-57
2022/04/27 12:15:21;;;;;;;2.03;1.27;;;18.60;2.40;;;;;;5040454;28;20053;-54
2022/04/27 12:17:51;;;;;;;1.17;1.08;;;18.60;2.40;;;;;;5023966;28;20029;-56
2022/04/27 12:20:40;;;;;;;2.15;1.60;;;18.60;2.40;;;;;;5029974;28;20029;-55
2022/04/27 12:23:16;;;;;;;2.63;1.20;;;18.60;2.80;;;;;;5028826;28;20499;-55
2022/04/27 12:25:44;;;;;;;1.23;1.00;;;18.40;2.70;;;;;;5010121;28;20038;-53
2022/04/27 12:28:15;;;;;;;1.42;1.30;;;18.30;2.90;;;;;;5046786;28;20037;-58
2022/04/27 12:30:52;;;;;;;2.97;1.42;;;18.30;2.90;;;;;;5009897;28;20161;-56
2022/04/27 12:33:29;;;;;;;3.78;1.30;;;18.30;3.20;;;;;;5046953;28;20085;-56
2022/04/27 12:39:03;;;;;;;2.15;1.48;;;18.50;3.10;;;;;;5039537;28;20048;-52
2022/04/27 12:41:34;;;;;;;3.10;1.48;;;18.80;2.70;;;;;;5049181;28;20032;-57
2022/04/27 12:44:42;;;;;;;1.95;1.42;;;19.20;1.80;;;;;;5045524;28;20033;-55
2022/04/27 12:48:08;;;;;;;1.98;1.20;;;19.50;1.50;;;;;;5041272;28;20029;-57
2022/04/27 12:51:34;;;;;;;3.05;1.23;;;19.60;1.70;;;;;;5037673;28;20036;-46
2022/04/27 12:54:58;;;;;;;3.83;1.55;;;19.80;1.80;;;;;;5045177;28;20041;-47
2022/04/27 12:57:47;;;;;;;1.45;1.15;;;19.80;1.70;;;;;;5036134;28;20033;-44
2022/04/27 13:00:38;;;;;;;2.97;1.30;;;19.90;1.60;;;;;;5035568;28;20033;-47
2022/04/27 13:04:03;;;;;;;2.58;1.55;;;19.90;1.50;;;;;;5039913;28;20033;-43
2022/04/27 13:07:29;;;;;;;1.27;1.05;;;19.60;1.10;;;;;;5045165;28;20412;-43
2022/04/27 13:14:18;;;;;;;1.15;1.00;;;19.40;2.60;;;;;;5036939;28;20084;-46
2022/04/27 13:17:43;;;;;;;4.55;1.70;;;19.40;2.30;;;;;;5042760;28;20045;-47
2022/04/27 13:21:09;;;;;;;1.42;1.25;;;19.50;2.20;;;;;;5030440;28;20042;-49
2022/04/27 13:24:34;;;;;;;3.58;1.50;;;19.70;1.80;;;;;;5043240;28;20108;-46
2022/04/27 13:27:59;;;;;;;1.30;1.17;;;19.90;2.20;;;;;;5035457;28;20044;-44
2022/04/27 13:31:25;;;;;;;1.38;1.27;;;20.00;1.70;;;;;;5028511;28;20037;-45
2022/04/27 13:34:50;;;;;;;1.60;1.50;;;20.20;1.30;;;;;;5045074;28;20061;-46
2022/04/27 13:38:16;;;;;;;1.88;1.23;;;20.30;1.30;;;;;;5035301;28;20037;-49
2022/04/27 13:41:41;;;;;;;1.50;1.33;;;20.30;1.00;;;;;;5008240;28;20465;-45
2022/04/27 13:45:06;;;;;;;2.00;1.40;;;20.40;1.00;;;;;;5048045;28;20098;-45
2022/04/27 13:48:32;;;;;;;1.48;1.38;;;20.40;1.60;;;;;;5035491;28;20041;-49
2022/04/27 13:51:17;;;;;;;3.75;1.90;;;20.60;1.40;;;;;;5042470;28;20115;-51
2022/04/27 13:53:43;;;;;;;2.90;1.70;;;20.70;1.00;;;;;;5047968;28;20392;-50
2022/04/27 13:56:08;;;;;;;4.00;1.92;;;20.30;1.10;;;;;;5039006;28;20108;-52
2022/04/27 13:58:35;;;;;;;3.78;1.63;;;19.90;1.20;;;;;;5046739;28;20115;-47
2022/04/27 14:01:01;;;;;;;2.15;1.38;;;19.70;1.70;;;;;;5031286;28;20037;-48
2022/04/27 14:03:26;;;;;;;1.75;1.40;;;19.50;2.00;;;;;;5034795;28;20025;-50
2022/04/27 14:05:52;;;;;;;2.42;1.20;;;19.40;2.20;;;;;;5047070;28;20036;-45
2022/04/27 14:08:18;;;;;;;3.90;1.50;;;19.40;2.30;;;;;;5034821;28;20029;-48
2022/04/27 14:10:43;;;;;;;2.30;1.10;;;19.20;2.50;;;;;;5027178;28;20063;-47
2022/04/27 14:13:16;;;;;;;2.08;1.15;;;19.10;2.80;;;;;;5033811;28;20044;-50
2022/04/27 14:18:09;;;;;;;2.45;1.25;;;19.00;2.90;;;;;;5014383;28;20045;-52
2022/04/27 14:18:31;;;;;;;3.05;1.45;;;18.80;3.10;;;;;;5022263;28;20198;-47
2022/04/27 14:20:58;;;;;;;5.18;1.60;;;18.80;3.30;;;;;;5024165;28;20022;-47
2022/04/27 14:23:24;;;;;;;4.07;1.40;;;18.80;3.10;;;;;;5036587;28;20025;-46
2022/04/27 14:25:50;;;;;;;1.50;1.40;;;18.70;3.20;;;;;;5022558;28;20041;-49
2022/04/27 14:28:17;;;;;;;4.53;1.40;;;18.70;3.50;;;;;;5038491;28;20051;-47
2022/04/27 14:30:43;;;;;;;1.90;1.20;;;18.60;3.50;;;;;;5022500;28;20102;-50
2022/04/27 14:33:10;;;;;;;1.92;1.45;;;18.70;3.50;;;;;;5034119;28;20111;-51
2022/04/27 14:35:37;;;;;;;3.08;1.48;;;18.80;3.60;;;;;;5026700;28;20032;-51
2022/04/27 14:38:06;;;;;;;1.30;1.20;;;19.00;3.50;;;;;;5027738;28;20030;-48
2022/04/27 14:40:35;;;;;;;4.00;1.23;;;19.10;3.40;;;;;;5046609;28;20021;-44
2022/04/27 14:43:03;;;;;;;2.28;1.35;;;19.30;3.10;;;;;;5023820;28;20030;-47
2022/04/27 14:45:31;;;;;;;3.97;1.30;;;19.20;2.70;;;;;;5046877;28;20037;-49
2022/04/27 14:48:41;;;;;;;4.72;1.90;;;19.10;2.60;;;;;;5024998;28;20108;-43
2022/04/27 14:52:02;;;;;;;3.42;1.20;;;18.90;2.80;;;;;;5041254;28;20044;-45
2022/04/27 14:55:28;;;;;;;2.88;1.40;;;18.60;3.00;;;;;;5042862;28;20048;-48
2022/04/27 14:58:53;;;;;;;3.15;1.67;;;18.50;3.30;;;;;;5023093;28;20033;-48
2022/04/27 15:02:19;;;;;;;3.45;1.40;;;18.30;3.60;;;;;;5030687;28;20075;-45
2022/04/27 15:05:44;;;;;;;2.33;1.55;;;18.30;4.20;;;;;;5035219;28;20029;-47
2022/04/27 15:09:09;;;;;;;2.50;1.20;;;18.30;4.50;;;;;;5027176;28;20037;-50
2022/04/27 15:12:35;;;;;;;2.40;1.00;;;18.20;4.00;;;;;;5042462;28;20049;-49
2022/04/27 15:16:00;;;;;;;6.75;2.03;;;18.30;4.50;;;;;;5040763;28;20049;-51